Time;durP1;ratioP1;P1;durP2;ratioP2;P2;SDS_P1;SDS_P2;PMS_P1;PMS_P2;Temp;Humidity;BMP_temperature;BMP_pressure;BME280_temperature;BME280_humidity;BME280_pressure;Samples;Min_cycle;Max_cycle;Signal;HPM_P1;HPM_P2
2020/12/03 00:02:25;;;;;;;50.40;21.43;;;;;;;;;;10324002;28;20229;-82
2020/12/03 00:07:28;;;;;;;55.57;22.43;;;;;;;;;;10319950;28;20567;-81
2020/12/03 00:12:30;;;;;;;55.67;23.03;;;;;;;;;;10320853;28;20221;-81
2020/12/03 00:17:32;;;;;;;62.17;22.57;;;;;;;;;;10321138;28;20210;-82
2020/12/03 00:22:35;;;;;;;52.37;22.83;;;;;;;;;;10323493;28;20248;-82
2020/12/03 00:27:36;;;;;;;55.13;21.50;;;;;;;;;;10317326;28;20245;-81
2020/12/03 00:32:38;;;;;;;56.33;22.43;;;;;;;;;;10324256;28;20592;-82
2020/12/03 00:37:41;;;;;;;63.20;22.80;;;;;;;;;;10326218;28;20302;-81
2020/12/03 00:42:43;;;;;;;54.17;22.67;;;;;;;;;;10321159;28;20234;-81
2020/12/03 00:47:46;;;;;;;57.17;22.57;;;;;;;;;;10319235;28;20228;-81
2020/12/03 00:52:48;;;;;;;55.23;22.17;;;;;;;;;;10318026;28;20214;-81
2020/12/03 00:57:50;;;;;;;62.53;22.63;;;;;;;;;;10323558;28;20216;-81
2020/12/03 01:02:52;;;;;;;59.03;21.67;;;;;;;;;;10316085;28;20714;-82
2020/12/03 01:07:55;;;;;;;54.73;21.00;;;;;;;;;;10321075;28;20213;-81
2020/12/03 01:12:57;;;;;;;51.80;19.07;;;;;;;;;;10319956;28;20236;-80
2020/12/03 01:17:59;;;;;;;49.20;18.37;;;;;;;;;;10318784;28;20955;-81
2020/12/03 01:23:02;;;;;;;46.67;18.10;;;;;;;;;;10315780;28;20233;-81
2020/12/03 01:28:04;;;;;;;53.23;18.07;;;;;;;;;;10315609;28;20241;-82
2020/12/03 01:33:06;;;;;;;44.07;16.37;;;;;;;;;;10309292;28;20216;-82
2020/12/03 01:38:09;;;;;;;46.47;16.33;;;;;;;;;;10322159;28;20691;-82
2020/12/03 01:43:11;;;;;;;41.77;15.83;;;;;;;;;;10316152;28;20249;-81
2020/12/03 01:48:16;;;;;;;37.50;14.53;;;;;;;;;;10312303;28;20214;-81
2020/12/03 01:53:19;;;;;;;36.03;13.83;;;;;;;;;;10314565;28;20212;-81
2020/12/03 01:58:42;;;;;;;37.73;13.37;;;;;;;;;;10320040;28;20305;-82
2020/12/03 02:03:45;;;;;;;37.93;13.00;;;;;;;;;;10305013;28;20739;-81
2020/12/03 02:08:48;;;;;;;31.13;11.50;;;;;;;;;;10325673;28;20587;-80
2020/12/03 02:13:50;;;;;;;38.60;11.53;;;;;;;;;;10318843;28;20220;-80
2020/12/03 02:18:52;;;;;;;41.10;11.87;;;;;;;;;;10311358;28;20209;-81
2020/12/03 02:23:55;;;;;;;33.23;11.00;;;;;;;;;;10318090;28;20245;-81
2020/12/03 02:28:57;;;;;;;27.87;10.00;;;;;;;;;;10320835;28;20210;-79
2020/12/03 02:33:59;;;;;;;33.17;11.00;;;;;;;;;;10320935;28;20213;-80
2020/12/03 02:39:01;;;;;;;25.23;10.37;;;;;;;;;;10321792;28;20218;-80
2020/12/03 02:44:03;;;;;;;31.57;10.13;;;;;;;;;;10327421;28;20830;-80
2020/12/03 02:49:05;;;;;;;33.97;10.83;;;;;;;;;;10322895;28;20262;-80
2020/12/03 02:54:09;;;;;;;32.10;9.63;;;;;;;;;;10323480;28;20210;-81
2020/12/03 02:59:11;;;;;;;33.57;10.83;;;;;;;;;;10324812;28;20220;-81
2020/12/03 03:04:13;;;;;;;25.43;9.77;;;;;;;;;;10323988;28;20233;-81
2020/12/03 03:09:15;;;;;;;30.10;9.53;;;;;;;;;;10323709;28;20217;-81
2020/12/03 03:14:18;;;;;;;24.70;9.37;;;;;;;;;;10326695;28;20216;-80
2020/12/03 03:19:19;;;;;;;31.70;9.30;;;;;;;;;;10329100;28;20217;-82
2020/12/03 03:24:23;;;;;;;36.60;9.90;;;;;;;;;;10329429;28;20244;-81
2020/12/03 03:29:25;;;;;;;27.20;8.87;;;;;;;;;;10325343;28;20295;-81
2020/12/03 03:34:27;;;;;;;27.73;8.80;;;;;;;;;;10317535;28;20209;-81
2020/12/03 03:39:30;;;;;;;32.07;9.43;;;;;;;;;;10318086;28;20213;-81
2020/12/03 03:44:32;;;;;;;26.03;8.67;;;;;;;;;;10321236;28;20232;-81
2020/12/03 03:49:34;;;;;;;26.73;8.97;;;;;;;;;;10317874;28;20216;-81
2020/12/03 03:54:37;;;;;;;35.80;9.47;;;;;;;;;;10324412;28;20210;-81
2020/12/03 03:59:39;;;;;;;22.43;8.80;;;;;;;;;;10319003;28;20221;-81
2020/12/03 04:04:41;;;;;;;24.37;9.70;;;;;;;;;;10321408;28;20702;-80
2020/12/03 04:09:44;;;;;;;30.43;10.63;;;;;;;;;;10320487;28;20240;-81
2020/12/03 04:14:46;;;;;;;30.57;9.50;;;;;;;;;;10322185;28;20275;-81
2020/12/03 04:19:48;;;;;;;31.87;11.33;;;;;;;;;;10318524;28;20594;-81
2020/12/03 04:24:51;;;;;;;32.80;11.47;;;;;;;;;;10334042;28;20245;-82
2020/12/03 04:29:53;;;;;;;30.27;10.80;;;;;;;;;;10319852;28;20209;-81
2020/12/03 04:34:55;;;;;;;29.13;11.73;;;;;;;;;;10321777;28;20217;-81
2020/12/03 04:39:57;;;;;;;36.17;11.97;;;;;;;;;;10320617;28;20216;-82
2020/12/03 04:45:01;;;;;;;35.73;13.67;;;;;;;;;;10318620;28;20209;-81
2020/12/03 04:50:07;;;;;;;34.60;13.70;;;;;;;;;;10312839;28;20206;-81
2020/12/03 04:55:21;;;;;;;37.33;14.00;;;;;;;;;;10317032;28;20209;-80
2020/12/03 05:00:39;;;;;;;34.53;14.20;;;;;;;;;;10316404;28;20729;-80
2020/12/03 05:05:47;;;;;;;38.40;14.10;;;;;;;;;;10321800;28;20212;-80
2020/12/03 05:10:49;;;;;;;32.53;13.87;;;;;;;;;;10318882;28;20215;-81
2020/12/03 05:15:56;;;;;;;34.77;15.67;;;;;;;;;;10318814;28;20209;-80
2020/12/03 05:21:01;;;;;;;38.97;15.97;;;;;;;;;;10318582;28;20240;-79
2020/12/03 05:26:12;;;;;;;39.33;15.97;;;;;;;;;;10320312;28;21068;-81
2020/12/03 05:31:16;;;;;;;33.53;16.00;;;;;;;;;;10314304;28;20856;-80
2020/12/03 05:36:26;;;;;;;40.57;16.93;;;;;;;;;;10323679;28;20206;-78
2020/12/03 05:41:29;;;;;;;38.10;17.93;;;;;;;;;;10314540;28;20228;-80
2020/12/03 05:46:33;;;;;;;47.00;19.40;;;;;;;;;;10316462;28;20202;-80
2020/12/03 05:51:35;;;;;;;52.20;19.83;;;;;;;;;;10311187;28;20228;-79
2020/12/03 05:56:37;;;;;;;40.73;18.83;;;;;;;;;;10319017;28;20208;-80
2020/12/03 06:01:43;;;;;;;44.63;19.67;;;;;;;;;;10314161;28;20958;-80
2020/12/03 06:07:00;;;;;;;42.17;19.23;;;;;;;;;;10326420;28;20209;-80
2020/12/03 06:12:09;;;;;;;42.13;19.07;;;;;;;;;;10306588;28;20209;-78
2020/12/03 06:17:18;;;;;;;47.90;19.53;;;;;;;;;;10311590;28;24884;-80
2020/12/03 06:22:28;;;;;;;50.17;20.43;;;;;;;;;;10313296;28;20253;-80
2020/12/03 06:27:50;;;;;;;45.07;19.80;;;;;;;;;;10318574;28;20572;-79
2020/12/03 06:33:02;;;;;;;48.43;20.63;;;;;;;;;;10313449;28;20228;-81
2020/12/03 06:38:18;;;;;;;52.60;22.00;;;;;;;;;;10307730;28;20220;-81
2020/12/03 06:43:25;;;;;;;57.77;24.67;;;;;;;;;;10308653;28;20322;-80
2020/12/03 06:48:38;;;;;;;54.67;26.17;;;;;;;;;;10312978;28;20216;-80
2020/12/03 06:53:57;;;;;;;53.93;25.53;;;;;;;;;;10314329;28;20206;-83
2020/12/03 06:59:14;;;;;;;60.17;26.17;;;;;;;;;;10306507;28;20201;-81
2020/12/03 07:04:40;;;;;;;56.93;26.80;;;;;;;;;;10309386;28;20230;-81
2020/12/03 07:09:58;;;;;;;62.07;26.20;;;;;;;;;;10301995;28;20217;-81
2020/12/03 07:15:21;;;;;;;64.13;28.47;;;;;;;;;;10323672;28;20678;-82
2020/12/03 07:20:43;;;;;;;64.23;27.57;;;;;;;;;;10287072;28;20210;-76
2020/12/03 07:25:48;;;;;;;58.53;27.30;;;;;;;;;;10319291;28;20869;-82
2020/12/03 07:30:51;;;;;;;61.53;28.83;;;;;;;;;;10314830;28;20244;-82
2020/12/03 07:36:13;;;;;;;66.23;30.13;;;;;;;;;;10319237;28;20618;-82
2020/12/03 07:41:16;;;;;;;72.90;31.43;;;;;;;;;;10326145;28;20244;-82
2020/12/03 07:46:32;;;;;;;70.67;31.30;;;;;;;;;;10322189;28;20213;-82
2020/12/03 07:51:34;;;;;;;70.17;29.90;;;;;;;;;;10325648;28;20213;-83
2020/12/03 07:56:39;;;;;;;70.77;31.27;;;;;;;;;;10330701;28;20318;-82
2020/12/03 08:01:41;;;;;;;64.43;29.27;;;;;;;;;;10311096;28;20261;-82
2020/12/03 08:06:49;;;;;;;70.40;29.43;;;;;;;;;;10318061;28;20217;-83
2020/12/03 08:12:07;;;;;;;71.37;30.93;;;;;;;;;;10313465;28;20739;-83
2020/12/03 08:17:27;;;;;;;71.87;31.03;;;;;;;;;;10325064;28;20221;-82
2020/12/03 08:22:31;;;;;;;72.33;30.00;;;;;;;;;;10320205;28;20609;-82
2020/12/03 08:27:34;;;;;;;70.00;28.87;;;;;;;;;;10322005;28;20727;-82
2020/12/03 08:32:53;;;;;;;68.50;29.10;;;;;;;;;;10329919;28;20209;-82
2020/12/03 08:37:56;;;;;;;68.83;28.43;;;;;;;;;;10322917;28;20213;-82
2020/12/03 08:43:02;;;;;;;67.80;27.33;;;;;;;;;;10319317;28;20252;-82
2020/12/03 08:48:05;;;;;;;57.50;26.17;;;;;;;;;;10313634;28;20216;-82
2020/12/03 08:53:07;;;;;;;58.50;26.50;;;;;;;;;;10322248;28;20205;-82
2020/12/03 08:58:10;;;;;;;54.87;25.20;;;;;;;;;;10315341;28;20206;-81
2020/12/03 09:03:14;;;;;;;55.77;24.30;;;;;;;;;;10321221;28;20241;-83
2020/12/03 09:08:18;;;;;;;51.17;24.57;;;;;;;;;;10321220;28;20213;-82
2020/12/03 09:13:20;;;;;;;45.30;22.43;;;;;;;;;;10312432;28;20213;-81
2020/12/03 09:18:22;;;;;;;49.13;22.63;;;;;;;;;;10321921;28;20638;-83
2020/12/03 09:23:26;;;;;;;56.90;21.27;;;;;;;;;;10316712;28;20232;-83
2020/12/03 09:28:28;;;;;;;36.53;19.80;;;;;;;;;;10320003;28;20236;-82
2020/12/03 09:33:31;;;;;;;37.10;18.83;;;;;;;;;;10314651;28;20576;-82
2020/12/03 09:38:33;;;;;;;40.37;18.03;;;;;;;;;;10323010;28;20205;-83
2020/12/03 09:43:35;;;;;;;33.30;17.03;;;;;;;;;;10315289;28;20233;-82
2020/12/03 09:48:38;;;;;;;31.27;15.77;;;;;;;;;;10312282;28;20209;-83
2020/12/03 09:53:40;;;;;;;31.53;16.57;;;;;;;;;;10319906;28;20213;-82
2020/12/03 09:58:42;;;;;;;38.03;17.60;;;;;;;;;;10310988;28;20205;-82
2020/12/03 10:04:01;;;;;;;34.03;15.80;;;;;;;;;;10314729;28;20233;-81
2020/12/03 10:09:18;;;;;;;34.97;17.90;;;;;;;;;;10314574;28;20209;-81
2020/12/03 10:14:27;;;;;;;36.13;18.33;;;;;;;;;;10314063;28;20297;-80
2020/12/03 10:19:30;;;;;;;39.10;20.27;;;;;;;;;;10310522;28;20786;-81
2020/12/03 10:24:39;;;;;;;39.83;21.30;;;;;;;;;;10315595;28;20252;-81
2020/12/03 10:29:45;;;;;;;40.07;20.37;;;;;;;;;;10322419;28;20232;-81
2020/12/03 10:34:48;;;;;;;45.10;21.60;;;;;;;;;;10308451;28;20836;-81
2020/12/03 10:39:52;;;;;;;39.90;20.47;;;;;;;;;;10317679;28;20205;-84
2020/12/03 10:45:00;;;;;;;46.60;21.10;;;;;;;;;;10321525;28;20241;-82
2020/12/03 10:50:03;;;;;;;38.50;20.60;;;;;;;;;;10334685;28;20229;-82
2020/12/03 10:55:05;;;;;;;41.23;20.17;;;;;;;;;;10327152;28;20221;-83
2020/12/03 11:00:09;;;;;;;36.37;19.37;;;;;;;;;;10318403;28;20210;-82
2020/12/03 11:05:12;;;;;;;38.80;19.10;;;;;;;;;;10324604;28;20244;-82
2020/12/03 11:10:15;;;;;;;40.37;18.43;;;;;;;;;;10318412;28;20681;-81
2020/12/03 11:15:19;;;;;;;32.67;18.67;;;;;;;;;;10321596;28;20210;-82
2020/12/03 11:20:22;;;;;;;32.97;17.83;;;;;;;;;;10319259;28;20208;-81
2020/12/03 11:25:26;;;;;;;34.43;18.03;;;;;;;;;;10324181;28;20964;-81
2020/12/03 11:30:31;;;;;;;38.20;17.63;;;;;;;;;;10317208;28;20213;-82
2020/12/03 11:35:34;;;;;;;35.67;17.93;;;;;;;;;;10320278;28;21467;-82
2020/12/03 11:40:39;;;;;;;32.77;17.43;;;;;;;;;;10316773;28;20213;-82
2020/12/03 11:50:59;;;;;;;31.03;17.27;;;;;;;;;;10316928;28;20205;-82
2020/12/03 11:56:01;;;;;;;34.60;19.80;;;;;;;;;;10325291;28;20591;-81
2020/12/03 12:01:07;;;;;;;43.90;19.87;;;;;;;;;;10317541;28;20213;-83
2020/12/03 12:06:15;;;;;;;38.33;20.33;;;;;;;;;;10317831;28;20212;-82
2020/12/03 12:11:21;;;;;;;48.10;21.13;;;;;;;;;;10319195;28;20218;-82
2020/12/03 12:16:24;;;;;;;40.43;20.37;;;;;;;;;;10320161;28;20205;-81
2020/12/03 12:21:28;;;;;;;37.57;19.90;;;;;;;;;;10329225;28;20230;-81
2020/12/03 12:26:31;;;;;;;38.53;19.47;;;;;;;;;;10328157;28;20264;-81
2020/12/03 12:31:33;;;;;;;34.60;18.13;;;;;;;;;;10321319;28;20202;-81
2020/12/03 12:36:34;;;;;;;35.47;17.77;;;;;;;;;;10313106;28;20210;-82
2020/12/03 12:41:37;;;;;;;29.87;16.80;;;;;;;;;;10318809;28;20233;-82
2020/12/03 12:46:39;;;;;;;31.47;15.73;;;;;;;;;;10316104;28;20224;-82
2020/12/03 12:51:41;;;;;;;32.93;15.87;;;;;;;;;;10319875;28;20299;-80
2020/12/03 12:56:46;;;;;;;31.00;15.50;;;;;;;;;;10315471;28;20300;-81
2020/12/03 13:01:48;;;;;;;28.03;14.10;;;;;;;;;;10316229;28;20299;-82
2020/12/03 13:06:54;;;;;;;29.17;14.33;;;;;;;;;;10309849;28;20213;-80
2020/12/03 13:11:57;;;;;;;27.60;14.00;;;;;;;;;;10320547;28;20206;-81
2020/12/03 13:16:59;;;;;;;24.60;12.80;;;;;;;;;;10318378;28;20579;-81
2020/12/03 13:22:01;;;;;;;22.90;11.70;;;;;;;;;;10315066;28;20233;-81
2020/12/03 13:27:04;;;;;;;24.03;11.10;;;;;;;;;;10318471;28;21111;-79
2020/12/03 13:32:06;;;;;;;26.23;11.07;;;;;;;;;;10321038;28;20205;-80
2020/12/03 13:37:08;;;;;;;19.40;10.10;;;;;;;;;;10313049;28;20245;-80
2020/12/03 13:42:10;;;;;;;20.53;9.67;;;;;;;;;;10318124;28;20613;-80
2020/12/03 13:47:12;;;;;;;18.53;10.60;;;;;;;;;;10322894;28;20209;-79
2020/12/03 13:52:14;;;;;;;16.10;9.07;;;;;;;;;;10317908;28;20209;-81
2020/12/03 13:57:17;;;;;;;18.27;9.60;;;;;;;;;;10313601;28;20247;-80
2020/12/03 14:02:20;;;;;;;14.10;9.00;;;;;;;;;;10317528;28;20235;-80
2020/12/03 14:07:22;;;;;;;15.57;8.33;;;;;;;;;;10316654;28;20630;-81
2020/12/03 14:12:25;;;;;;;19.10;8.67;;;;;;;;;;10318406;28;20300;-81
2020/12/03 14:17:27;;;;;;;13.00;8.00;;;;;;;;;;10329285;28;20236;-81
2020/12/03 14:22:31;;;;;;;17.00;7.63;;;;;;;;;;10325447;28;20255;-81
2020/12/03 14:27:33;;;;;;;18.20;8.27;;;;;;;;;;10317957;28;20229;-80
2020/12/03 14:32:35;;;;;;;11.30;6.60;;;;;;;;;;10326161;28;20221;-80
2020/12/03 14:37:38;;;;;;;15.77;6.47;;;;;;;;;;10319295;28;20213;-79
2020/12/03 14:42:41;;;;;;;11.07;7.00;;;;;;;;;;10325624;28;20627;-80
2020/12/03 14:47:43;;;;;;;10.67;6.70;;;;;;;;;;10317938;28;20221;-80
2020/12/03 14:52:49;;;;;;;11.33;7.23;;;;;;;;;;10321214;28;20209;-82
2020/12/03 14:57:51;;;;;;;11.60;7.70;;;;;;;;;;10322340;28;20220;-82
2020/12/03 15:02:53;;;;;;;13.83;8.10;;;;;;;;;;10314611;28;20242;-82
2020/12/03 15:07:55;;;;;;;11.33;7.03;;;;;;;;;;10326521;28;21118;-82
2020/12/03 15:12:58;;;;;;;10.10;6.67;;;;;;;;;;10327211;28;20587;-80
2020/12/03 15:18:00;;;;;;;9.77;6.13;;;;;;;;;;10317226;28;20684;-81
2020/12/03 15:23:02;;;;;;;10.73;6.10;;;;;;;;;;10325407;28;20716;-81
2020/12/03 15:28:05;;;;;;;10.70;5.50;;;;;;;;;;10321422;28;20252;-81
2020/12/03 15:33:07;;;;;;;8.17;5.07;;;;;;;;;;10321346;28;20218;-80
2020/12/03 15:38:09;;;;;;;7.80;5.20;;;;;;;;;;10323540;28;20569;-79
2020/12/03 15:43:12;;;;;;;8.37;4.93;;;;;;;;;;10319500;28;20235;-79
2020/12/03 15:48:19;;;;;;;8.30;5.37;;;;;;;;;;10319025;28;20618;-79
2020/12/03 15:53:21;;;;;;;9.40;5.37;;;;;;;;;;10320547;28;20210;-78
2020/12/03 15:58:24;;;;;;;9.07;5.83;;;;;;;;;;10327408;28;20255;-77
2020/12/03 16:03:25;;;;;;;10.27;5.53;;;;;;;;;;10312540;28;20773;-76
2020/12/03 16:08:30;;;;;;;7.70;5.10;;;;;;;;;;10331936;28;20201;-78
2020/12/03 16:13:33;;;;;;;9.83;6.10;;;;;;;;;;10318060;28;20216;-79
2020/12/03 16:18:35;;;;;;;8.50;5.80;;;;;;;;;;10319228;28;20213;-80
2020/12/03 16:23:37;;;;;;;10.07;6.17;;;;;;;;;;10323445;28;20238;-78
2020/12/03 16:28:40;;;;;;;9.40;6.40;;;;;;;;;;10319052;28;20237;-79
2020/12/03 16:33:53;;;;;;;9.03;6.20;;;;;;;;;;10321283;28;20296;-78
2020/12/03 16:38:55;;;;;;;8.30;5.93;;;;;;;;;;10325150;28;20235;-78
2020/12/03 16:43:58;;;;;;;13.17;5.90;;;;;;;;;;10314424;28;20245;-78
2020/12/03 16:49:00;;;;;;;9.53;5.57;;;;;;;;;;10313750;28;20213;-78
2020/12/03 16:54:06;;;;;;;7.37;4.50;;;;;;;;;;10315944;28;20205;-79
2020/12/03 16:59:09;;;;;;;6.47;4.53;;;;;;;;;;10316470;28;20723;-78
2020/12/03 17:04:11;;;;;;;8.20;5.23;;;;;;;;;;10322410;28;20641;-79
2020/12/03 17:09:14;;;;;;;5.67;4.13;;;;;;;;;;10323914;28;20734;-80
2020/12/03 17:14:35;;;;;;;7.23;4.17;;;;;;;;;;10322564;28;20296;-82
2020/12/03 17:19:39;;;;;;;5.70;4.07;;;;;;;;;;10328234;28;20559;-79
2020/12/03 17:24:41;;;;;;;9.10;4.00;;;;;;;;;;10312517;28;20245;-77
2020/12/03 17:29:43;;;;;;;6.83;3.80;;;;;;;;;;10321154;28;20656;-78
2020/12/03 17:34:46;;;;;;;5.60;3.70;;;;;;;;;;10308505;28;20220;-79
2020/12/03 17:39:48;;;;;;;7.20;4.70;;;;;;;;;;10318989;28;20210;-79
2020/12/03 17:44:51;;;;;;;6.77;4.50;;;;;;;;;;10315360;28;20233;-78
2020/12/03 17:49:54;;;;;;;7.33;4.73;;;;;;;;;;10323779;28;20205;-78
2020/12/03 17:54:55;;;;;;;7.30;4.40;;;;;;;;;;10309029;28;20213;-78
2020/12/03 17:59:57;;;;;;;6.37;4.03;;;;;;;;;;10329846;28;20205;-78
2020/12/03 18:05:00;;;;;;;5.80;4.00;;;;;;;;;;10311954;28;20310;-73
2020/12/03 18:10:02;;;;;;;7.53;3.87;;;;;;;;;;10326630;28;20252;-74
2020/12/03 18:15:05;;;;;;;6.23;4.00;;;;;;;;;;10338518;28;20597;-76
2020/12/03 18:20:07;;;;;;;6.43;4.07;;;;;;;;;;10309014;28;20213;-75
2020/12/03 18:25:09;;;;;;;6.23;3.83;;;;;;;;;;10318802;28;20244;-75
2020/12/03 18:30:11;;;;;;;10.03;4.63;;;;;;;;;;10304592;28;20245;-74
2020/12/03 18:35:14;;;;;;;6.17;3.90;;;;;;;;;;10310716;28;20217;-75
2020/12/03 18:40:16;;;;;;;6.70;3.80;;;;;;;;;;10309584;28;20209;-75
2020/12/03 18:45:19;;;;;;;9.97;4.90;;;;;;;;;;10311933;28;20652;-76
2020/12/03 18:50:21;;;;;;;8.33;4.60;;;;;;;;;;10311077;28;20221;-75
2020/12/03 18:55:23;;;;;;;8.53;4.80;;;;;;;;;;10305737;28;20214;-75
2020/12/03 19:00:25;;;;;;;9.43;5.07;;;;;;;;;;10301307;28;20221;-76
2020/12/03 19:05:33;;;;;;;10.80;4.63;;;;;;;;;;10301893;28;20244;-75
2020/12/03 19:10:37;;;;;;;8.00;4.73;;;;;;;;;;10315199;28;20234;-75
2020/12/03 19:15:39;;;;;;;7.10;4.47;;;;;;;;;;10309248;28;20210;-75
2020/12/03 19:20:42;;;;;;;9.33;5.30;;;;;;;;;;10312114;28;20699;-75
2020/12/03 19:25:43;;;;;;;8.27;5.50;;;;;;;;;;10319126;28;20722;-76
2020/12/03 19:30:45;;;;;;;9.77;6.00;;;;;;;;;;10313474;28;20311;-74
2020/12/03 19:35:48;;;;;;;9.60;6.10;;;;;;;;;;10313056;28;20216;-74
2020/12/03 19:40:50;;;;;;;8.53;5.40;;;;;;;;;;10312444;28;20220;-75
2020/12/03 19:45:52;;;;;;;9.00;5.20;;;;;;;;;;10316171;28;20245;-74
2020/12/03 19:50:55;;;;;;;9.40;5.67;;;;;;;;;;10314001;28;20801;-74
2020/12/03 19:55:57;;;;;;;9.40;5.93;;;;;;;;;;10306060;28;20217;-74
2020/12/03 20:00:59;;;;;;;10.77;5.70;;;;;;;;;;10317372;28;20224;-74
2020/12/03 20:06:01;;;;;;;9.83;6.03;;;;;;;;;;10306007;28;20238;-73
2020/12/03 20:11:03;;;;;;;10.00;5.87;;;;;;;;;;10314710;28;20220;-73
2020/12/03 20:16:05;;;;;;;10.33;6.17;;;;;;;;;;10311941;28;20212;-73
2020/12/03 20:21:07;;;;;;;10.13;6.10;;;;;;;;;;10312089;28;20224;-75
2020/12/03 20:26:09;;;;;;;11.50;6.10;;;;;;;;;;10309889;28;20244;-75
2020/12/03 20:31:11;;;;;;;10.90;5.97;;;;;;;;;;10313895;28;20903;-74
2020/12/03 20:36:16;;;;;;;12.40;6.20;;;;;;;;;;10306187;28;20209;-74
2020/12/03 20:41:21;;;;;;;10.47;6.20;;;;;;;;;;10318615;28;20676;-74
2020/12/03 20:46:23;;;;;;;9.27;5.40;;;;;;;;;;10306795;28;20588;-75
2020/12/03 20:51:26;;;;;;;8.47;5.63;;;;;;;;;;10306742;28;20785;-73
2020/12/03 20:56:28;;;;;;;9.80;5.93;;;;;;;;;;10316553;28;20225;-75
2020/12/03 21:01:30;;;;;;;11.33;5.90;;;;;;;;;;10305799;28;22126;-75
2020/12/03 21:06:33;;;;;;;9.90;5.60;;;;;;;;;;10304161;28;20240;-76
2020/12/03 21:11:35;;;;;;;9.00;5.00;;;;;;;;;;10312427;28;20205;-75
2020/12/03 21:16:36;;;;;;;9.07;5.77;;;;;;;;;;10312848;28;20206;-75
2020/12/03 21:21:39;;;;;;;9.00;5.20;;;;;;;;;;10303131;28;20209;-75
2020/12/03 21:26:41;;;;;;;8.20;4.90;;;;;;;;;;10307547;28;20246;-74
2020/12/03 21:31:43;;;;;;;10.30;5.97;;;;;;;;;;10311111;28;20227;-75
2020/12/03 21:36:45;;;;;;;8.90;5.57;;;;;;;;;;10313113;28;20239;-74
2020/12/03 21:41:49;;;;;;;9.60;5.30;;;;;;;;;;10315474;28;20300;-74
2020/12/03 21:46:51;;;;;;;11.20;5.23;;;;;;;;;;10308861;28;20586;-74
2020/12/03 21:51:53;;;;;;;10.43;5.77;;;;;;;;;;10307266;28;20205;-74
2020/12/03 21:56:55;;;;;;;8.30;5.37;;;;;;;;;;10306429;28;20225;-75
2020/12/03 22:01:57;;;;;;;8.03;5.40;;;;;;;;;;10307685;28;20218;-74
2020/12/03 22:06:59;;;;;;;8.13;5.67;;;;;;;;;;10313872;28;20229;-75
2020/12/03 22:12:01;;;;;;;8.63;5.27;;;;;;;;;;10310498;28;20206;-75
2020/12/03 22:17:03;;;;;;;7.70;5.23;;;;;;;;;;10305053;28;20582;-75
2020/12/03 22:22:07;;;;;;;7.17;4.93;;;;;;;;;;10310531;28;20213;-75
2020/12/03 22:27:10;;;;;;;8.57;5.87;;;;;;;;;;10313441;28;20241;-75
2020/12/03 22:32:11;;;;;;;8.77;5.60;;;;;;;;;;10314641;28;20217;-75
2020/12/03 22:37:14;;;;;;;9.43;5.80;;;;;;;;;;10309674;28;20266;-74
2020/12/03 22:42:17;;;;;;;8.13;5.60;;;;;;;;;;10313798;28;20765;-75
2020/12/03 22:47:19;;;;;;;9.73;5.90;;;;;;;;;;10319765;28;20249;-75
2020/12/03 22:52:21;;;;;;;7.57;5.37;;;;;;;;;;10317112;28;20209;-75
2020/12/03 22:57:26;;;;;;;8.67;5.60;;;;;;;;;;10310636;28;20217;-74
2020/12/03 23:02:28;;;;;;;8.97;5.67;;;;;;;;;;10317739;28;20217;-74
2020/12/03 23:07:31;;;;;;;7.57;5.03;;;;;;;;;;10325661;28;20271;-74
2020/12/03 23:12:33;;;;;;;8.07;5.20;;;;;;;;;;10323511;28;20224;-74
2020/12/03 23:17:35;;;;;;;6.63;4.80;;;;;;;;;;10325376;28;20224;-74
2020/12/03 23:22:39;;;;;;;10.10;5.23;;;;;;;;;;10315592;28;20209;-74
2020/12/03 23:27:41;;;;;;;7.80;5.60;;;;;;;;;;10324774;28;20816;-75
2020/12/03 23:32:44;;;;;;;7.63;5.17;;;;;;;;;;10315122;28;21839;-74
2020/12/03 23:37:46;;;;;;;7.77;5.43;;;;;;;;;;10324311;28;20231;-75
2020/12/03 23:42:48;;;;;;;10.03;5.30;;;;;;;;;;10323904;28;20217;-74
2020/12/03 23:47:51;;;;;;;7.90;5.03;;;;;;;;;;10320051;28;20332;-75
2020/12/03 23:52:54;;;;;;;8.77;5.70;;;;;;;;;;10326780;28;20263;-75
2020/12/03 23:57:56;;;;;;;9.70;5.40;;;;;;;;;;10318892;28;20217;-74
